sensor_id;sensor_type;location;lat;lon;timestamp;P1;durP1;ratioP1;P2;durP2;ratioP2
47259;SDS011;32999;52.412;4.890;2023-05-07T00:03:07;22.30;;;15.32;;
47259;SDS011;32999;52.412;4.890;2023-05-07T00:08:17;26.40;;;15.70;;
47259;SDS011;32999;52.412;4.890;2023-05-07T00:13:19;32.17;;;17.90;;
47259;SDS011;32999;52.412;4.890;2023-05-07T00:18:35;34.03;;;20.88;;
47259;SDS011;32999;52.412;4.890;2023-05-07T00:23:45;36.75;;;21.08;;
47259;SDS011;32999;52.412;4.890;2023-05-07T00:28:47;38.45;;;21.92;;
47259;SDS011;32999;52.412;4.890;2023-05-07T00:33:50;36.38;;;21.48;;
47259;SDS011;32999;52.412;4.890;2023-05-07T00:38:56;38.88;;;23.60;;
47259;SDS011;32999;52.412;4.890;2023-05-07T00:43:58;39.83;;;23.65;;
47259;SDS011;32999;52.412;4.890;2023-05-07T00:49:00;39.60;;;22.65;;
47259;SDS011;32999;52.412;4.890;2023-05-07T00:54:04;42.75;;;23.60;;
47259;SDS011;32999;52.412;4.890;2023-05-07T00:59:12;45.90;;;24.33;;
47259;SDS011;32999;52.412;4.890;2023-05-07T01:04:14;42.95;;;23.45;;
47259;SDS011;32999;52.412;4.890;2023-05-07T01:09:17;37.47;;;22.30;;
47259;SDS011;32999;52.412;4.890;2023-05-07T01:19:21;38.85;;;22.88;;
47259;SDS011;32999;52.412;4.890;2023-05-07T01:24:24;33.65;;;20.35;;
47259;SDS011;32999;52.412;4.890;2023-05-07T01:29:26;40.20;;;22.85;;
47259;SDS011;32999;52.412;4.890;2023-05-07T01:34:29;30.63;;;18.83;;
47259;SDS011;32999;52.412;4.890;2023-05-07T01:39:32;29.85;;;18.63;;
47259;SDS011;32999;52.412;4.890;2023-05-07T01:44:34;29.65;;;16.17;;
47259;SDS011;32999;52.412;4.890;2023-05-07T01:49:37;22.65;;;15.13;;
47259;SDS011;32999;52.412;4.890;2023-05-07T01:54:42;23.60;;;15.20;;
47259;SDS011;32999;52.412;4.890;2023-05-07T01:59:46;23.17;;;13.32;;
47259;SDS011;32999;52.412;4.890;2023-05-07T02:04:47;22.90;;;14.77;;
47259;SDS011;32999;52.412;4.890;2023-05-07T02:09:50;19.30;;;13.75;;
47259;SDS011;32999;52.412;4.890;2023-05-07T02:14:52;19.00;;;12.20;;
47259;SDS011;32999;52.412;4.890;2023-05-07T02:19:54;21.67;;;13.57;;
47259;SDS011;32999;52.412;4.890;2023-05-07T02:24:59;17.67;;;12.10;;
47259;SDS011;32999;52.412;4.890;2023-05-07T02:30:02;17.08;;;11.75;;
47259;SDS011;32999;52.412;4.890;2023-05-07T02:35:04;15.00;;;9.95;;
47259;SDS011;32999;52.412;4.890;2023-05-07T02:40:08;14.60;;;10.27;;
47259;SDS011;32999;52.412;4.890;2023-05-07T02:45:12;20.07;;;8.87;;
47259;SDS011;32999;52.412;4.890;2023-05-07T02:50:16;16.15;;;9.63;;
47259;SDS011;32999;52.412;4.890;2023-05-07T02:55:26;13.10;;;8.63;;
47259;SDS011;32999;52.412;4.890;2023-05-07T03:00:28;14.38;;;8.10;;
47259;SDS011;32999;52.412;4.890;2023-05-07T03:05:29;11.95;;;8.13;;
47259;SDS011;32999;52.412;4.890;2023-05-07T03:10:32;15.38;;;8.35;;
47259;SDS011;32999;52.412;4.890;2023-05-07T03:15:34;10.70;;;7.70;;
47259;SDS011;32999;52.412;4.890;2023-05-07T03:20:35;10.00;;;6.80;;
47259;SDS011;32999;52.412;4.890;2023-05-07T03:25:39;9.57;;;5.47;;
47259;SDS011;32999;52.412;4.890;2023-05-07T03:30:40;8.88;;;5.93;;
47259;SDS011;32999;52.412;4.890;2023-05-07T03:35:42;10.38;;;6.13;;
47259;SDS011;32999;52.412;4.890;2023-05-07T03:40:45;7.85;;;6.25;;
47259;SDS011;32999;52.412;4.890;2023-05-07T03:45:46;9.02;;;6.05;;
47259;SDS011;32999;52.412;4.890;2023-05-07T03:50:48;6.80;;;5.03;;
47259;SDS011;32999;52.412;4.890;2023-05-07T03:55:51;5.78;;;4.53;;
47259;SDS011;32999;52.412;4.890;2023-05-07T04:00:52;6.85;;;4.97;;
47259;SDS011;32999;52.412;4.890;2023-05-07T04:05:54;9.93;;;5.20;;
47259;SDS011;32999;52.412;4.890;2023-05-07T04:10:58;8.38;;;5.72;;
47259;SDS011;32999;52.412;4.890;2023-05-07T04:16:01;10.10;;;5.43;;
47259;SDS011;32999;52.412;4.890;2023-05-07T04:21:02;7.32;;;5.25;;
47259;SDS011;32999;52.412;4.890;2023-05-07T04:26:05;10.73;;;5.53;;
47259;SDS011;32999;52.412;4.890;2023-05-07T04:31:07;8.43;;;4.50;;
47259;SDS011;32999;52.412;4.890;2023-05-07T04:36:09;8.23;;;4.93;;
47259;SDS011;32999;52.412;4.890;2023-05-07T04:41:12;9.18;;;4.88;;
47259;SDS011;32999;52.412;4.890;2023-05-07T04:46:16;7.78;;;5.15;;
47259;SDS011;32999;52.412;4.890;2023-05-07T04:51:19;6.43;;;4.30;;
47259;SDS011;32999;52.412;4.890;2023-05-07T04:56:22;10.90;;;5.28;;
47259;SDS011;32999;52.412;4.890;2023-05-07T05:01:23;8.93;;;5.55;;
47259;SDS011;32999;52.412;4.890;2023-05-07T05:06:25;10.23;;;5.95;;
47259;SDS011;32999;52.412;4.890;2023-05-07T05:11:28;11.60;;;6.72;;
47259;SDS011;32999;52.412;4.890;2023-05-07T05:16:29;9.20;;;7.07;;
47259;SDS011;32999;52.412;4.890;2023-05-07T05:21:31;12.52;;;8.18;;
47259;SDS011;32999;52.412;4.890;2023-05-07T05:26:34;10.93;;;8.95;;
47259;SDS011;32999;52.412;4.890;2023-05-07T05:31:35;10.38;;;7.97;;
47259;SDS011;32999;52.412;4.890;2023-05-07T05:36:40;12.48;;;9.00;;
47259;SDS011;32999;52.412;4.890;2023-05-07T05:53:22;11.15;;;8.55;;
47259;SDS011;32999;52.412;4.890;2023-05-07T05:58:24;9.90;;;7.47;;
47259;SDS011;32999;52.412;4.890;2023-05-07T06:03:25;9.88;;;7.35;;
47259;SDS011;32999;52.412;4.890;2023-05-07T06:08:30;12.38;;;8.52;;
47259;SDS011;32999;52.412;4.890;2023-05-07T06:18:33;15.63;;;8.35;;
47259;SDS011;32999;52.412;4.890;2023-05-07T06:23:37;13.88;;;9.43;;
47259;SDS011;32999;52.412;4.890;2023-05-07T06:28:40;12.98;;;8.80;;
47259;SDS011;32999;52.412;4.890;2023-05-07T06:33:42;14.90;;;9.05;;
47259;SDS011;32999;52.412;4.890;2023-05-07T06:38:45;13.50;;;8.82;;
47259;SDS011;32999;52.412;4.890;2023-05-07T06:43:47;15.32;;;9.20;;
47259;SDS011;32999;52.412;4.890;2023-05-07T06:48:48;11.50;;;8.18;;
47259;SDS011;32999;52.412;4.890;2023-05-07T06:53:51;13.02;;;8.38;;
47259;SDS011;32999;52.412;4.890;2023-05-07T06:58:57;12.35;;;9.05;;
47259;SDS011;32999;52.412;4.890;2023-05-07T07:03:58;13.68;;;9.43;;
47259;SDS011;32999;52.412;4.890;2023-05-07T07:09:04;14.88;;;9.63;;
47259;SDS011;32999;52.412;4.890;2023-05-07T07:14:06;11.35;;;9.32;;
47259;SDS011;32999;52.412;4.890;2023-05-07T07:19:08;13.10;;;9.40;;
47259;SDS011;32999;52.412;4.890;2023-05-07T07:24:14;14.98;;;9.98;;
47259;SDS011;32999;52.412;4.890;2023-05-07T07:29:19;18.58;;;11.60;;
47259;SDS011;32999;52.412;4.890;2023-05-07T07:34:20;14.02;;;9.13;;
47259;SDS011;32999;52.412;4.890;2023-05-07T07:39:26;10.93;;;8.77;;
47259;SDS011;32999;52.412;4.890;2023-05-07T07:44:28;12.00;;;8.52;;
47259;SDS011;32999;52.412;4.890;2023-05-07T07:49:32;13.50;;;8.82;;
47259;SDS011;32999;52.412;4.890;2023-05-07T07:54:35;12.65;;;8.60;;
47259;SDS011;32999;52.412;4.890;2023-05-07T07:59:36;14.82;;;9.75;;
47259;SDS011;32999;52.412;4.890;2023-05-07T08:04:39;9.30;;;6.95;;
47259;SDS011;32999;52.412;4.890;2023-05-07T08:09:43;10.52;;;8.30;;
47259;SDS011;32999;52.412;4.890;2023-05-07T08:14:44;11.13;;;7.88;;
47259;SDS011;32999;52.412;4.890;2023-05-07T08:19:46;11.57;;;8.73;;
47259;SDS011;32999;52.412;4.890;2023-05-07T08:24:49;9.60;;;7.63;;
47259;SDS011;32999;52.412;4.890;2023-05-07T08:29:51;9.48;;;7.47;;
47259;SDS011;32999;52.412;4.890;2023-05-07T08:34:53;8.85;;;7.95;;
47259;SDS011;32999;52.412;4.890;2023-05-07T08:39:56;11.30;;;7.63;;
47259;SDS011;32999;52.412;4.890;2023-05-07T08:44:57;12.82;;;9.07;;
47259;SDS011;32999;52.412;4.890;2023-05-07T08:50:02;11.10;;;8.55;;
47259;SDS011;32999;52.412;4.890;2023-05-07T08:55:05;10.75;;;8.52;;
47259;SDS011;32999;52.412;4.890;2023-05-07T09:00:08;13.02;;;9.23;;
47259;SDS011;32999;52.412;4.890;2023-05-07T09:05:09;10.02;;;7.72;;
47259;SDS011;32999;52.412;4.890;2023-05-07T09:10:16;8.43;;;6.85;;
47259;SDS011;32999;52.412;4.890;2023-05-07T09:15:18;10.32;;;6.50;;
47259;SDS011;32999;52.412;4.890;2023-05-07T09:20:19;8.90;;;6.13;;
47259;SDS011;32999;52.412;4.890;2023-05-07T09:25:28;12.00;;;7.45;;
47259;SDS011;32999;52.412;4.890;2023-05-07T09:30:30;9.65;;;7.13;;
47259;SDS011;32999;52.412;4.890;2023-05-07T09:35:32;12.45;;;7.35;;
47259;SDS011;32999;52.412;4.890;2023-05-07T09:40:35;9.73;;;6.47;;
47259;SDS011;32999;52.412;4.890;2023-05-07T09:45:37;9.77;;;6.13;;
47259;SDS011;32999;52.412;4.890;2023-05-07T09:50:40;6.80;;;5.35;;
47259;SDS011;32999;52.412;4.890;2023-05-07T09:55:45;6.68;;;5.53;;
47259;SDS011;32999;52.412;4.890;2023-05-07T10:00:47;6.93;;;5.38;;
47259;SDS011;32999;52.412;4.890;2023-05-07T10:05:49;6.53;;;5.22;;
47259;SDS011;32999;52.412;4.890;2023-05-07T10:10:53;9.63;;;6.22;;
47259;SDS011;32999;52.412;4.890;2023-05-07T10:15:55;6.88;;;5.35;;
47259;SDS011;32999;52.412;4.890;2023-05-07T10:20:57;9.63;;;6.00;;
47259;SDS011;32999;52.412;4.890;2023-05-07T10:26:04;6.43;;;5.72;;
47259;SDS011;32999;52.412;4.890;2023-05-07T10:31:21;10.93;;;6.40;;
47259;SDS011;32999;52.412;4.890;2023-05-07T10:36:24;9.85;;;6.50;;
47259;SDS011;32999;52.412;4.890;2023-05-07T10:41:29;9.65;;;7.22;;
47259;SDS011;32999;52.412;4.890;2023-05-07T10:46:30;10.57;;;6.80;;
47259;SDS011;32999;52.412;4.890;2023-05-07T10:51:36;10.15;;;6.90;;
47259;SDS011;32999;52.412;4.890;2023-05-07T10:56:40;7.82;;;6.22;;
47259;SDS011;32999;52.412;4.890;2023-05-07T11:01:49;8.00;;;7.15;;
47259;SDS011;32999;52.412;4.890;2023-05-07T11:12:14;8.85;;;7.55;;
47259;SDS011;32999;52.412;4.890;2023-05-07T11:17:16;8.90;;;7.13;;
47259;SDS011;32999;52.412;4.890;2023-05-07T11:27:42;9.13;;;7.65;;
47259;SDS011;32999;52.412;4.890;2023-05-07T11:32:46;9.63;;;8.07;;
47259;SDS011;32999;52.412;4.890;2023-05-07T11:37:48;10.05;;;8.02;;
47259;SDS011;32999;52.412;4.890;2023-05-07T11:42:52;8.52;;;7.40;;
47259;SDS011;32999;52.412;4.890;2023-05-07T11:47:53;9.60;;;7.55;;
47259;SDS011;32999;52.412;4.890;2023-05-07T11:52:55;14.07;;;8.05;;
47259;SDS011;32999;52.412;4.890;2023-05-07T11:58:12;9.77;;;7.43;;
47259;SDS011;32999;52.412;4.890;2023-05-07T12:03:14;11.57;;;8.07;;
47259;SDS011;32999;52.412;4.890;2023-05-07T12:08:19;10.27;;;7.78;;
47259;SDS011;32999;52.412;4.890;2023-05-07T12:13:31;9.07;;;7.00;;
47259;SDS011;32999;52.412;4.890;2023-05-07T12:18:40;7.70;;;6.18;;
47259;SDS011;32999;52.412;4.890;2023-05-07T12:23:52;8.50;;;6.78;;
47259;SDS011;32999;52.412;4.890;2023-05-07T12:29:25;10.63;;;6.97;;
47259;SDS011;32999;52.412;4.890;2023-05-07T12:34:57;8.68;;;6.63;;
47259;SDS011;32999;52.412;4.890;2023-05-07T12:40:05;9.35;;;6.28;;
47259;SDS011;32999;52.412;4.890;2023-05-07T12:45:12;10.95;;;6.00;;
47259;SDS011;32999;52.412;4.890;2023-05-07T12:50:14;8.98;;;5.70;;
47259;SDS011;32999;52.412;4.890;2023-05-07T12:55:31;9.35;;;6.03;;
47259;SDS011;32999;52.412;4.890;2023-05-07T13:01:03;9.60;;;5.90;;
47259;SDS011;32999;52.412;4.890;2023-05-07T13:06:13;8.93;;;5.47;;
47259;SDS011;32999;52.412;4.890;2023-05-07T13:11:15;7.82;;;5.90;;
47259;SDS011;32999;52.412;4.890;2023-05-07T13:16:18;11.23;;;8.43;;
47259;SDS011;32999;52.412;4.890;2023-05-07T13:21:20;13.07;;;8.10;;
47259;SDS011;32999;52.412;4.890;2023-05-07T13:26:22;15.75;;;7.95;;
47259;SDS011;32999;52.412;4.890;2023-05-07T13:31:26;9.32;;;6.80;;
47259;SDS011;32999;52.412;4.890;2023-05-07T13:36:27;8.13;;;5.80;;
47259;SDS011;32999;52.412;4.890;2023-05-07T13:41:29;7.95;;;5.97;;
47259;SDS011;32999;52.412;4.890;2023-05-07T13:46:31;12.70;;;8.85;;
47259;SDS011;32999;52.412;4.890;2023-05-07T13:51:33;22.80;;;11.75;;
47259;SDS011;32999;52.412;4.890;2023-05-07T13:56:39;26.77;;;12.70;;
47259;SDS011;32999;52.412;4.890;2023-05-07T14:01:42;35.33;;;16.08;;
47259;SDS011;32999;52.412;4.890;2023-05-07T14:06:44;24.50;;;14.23;;
47259;SDS011;32999;52.412;4.890;2023-05-07T14:11:45;22.75;;;11.73;;
47259;SDS011;32999;52.412;4.890;2023-05-07T14:16:49;24.38;;;13.07;;
47259;SDS011;32999;52.412;4.890;2023-05-07T14:21:50;19.85;;;11.30;;
47259;SDS011;32999;52.412;4.890;2023-05-07T14:26:52;23.58;;;13.32;;
47259;SDS011;32999;52.412;4.890;2023-05-07T14:31:55;28.23;;;15.77;;
47259;SDS011;32999;52.412;4.890;2023-05-07T14:36:56;27.08;;;15.98;;
47259;SDS011;32999;52.412;4.890;2023-05-07T14:41:58;28.08;;;15.77;;
47259;SDS011;32999;52.412;4.890;2023-05-07T14:47:01;33.33;;;16.75;;
47259;SDS011;32999;52.412;4.890;2023-05-07T14:52:02;28.02;;;15.88;;
47259;SDS011;32999;52.412;4.890;2023-05-07T14:57:06;24.80;;;15.97;;
47259;SDS011;32999;52.412;4.890;2023-05-07T15:02:10;27.63;;;15.23;;
47259;SDS011;32999;52.412;4.890;2023-05-07T15:07:12;27.23;;;16.08;;
47259;SDS011;32999;52.412;4.890;2023-05-07T15:12:15;25.50;;;14.13;;
47259;SDS011;32999;52.412;4.890;2023-05-07T15:17:17;21.33;;;13.63;;
47259;SDS011;32999;52.412;4.890;2023-05-07T15:22:19;17.33;;;10.90;;
47259;SDS011;32999;52.412;4.890;2023-05-07T15:27:21;22.63;;;12.63;;
47259;SDS011;32999;52.412;4.890;2023-05-07T15:32:24;14.20;;;9.50;;
47259;SDS011;32999;52.412;4.890;2023-05-07T15:37:25;14.65;;;7.47;;
47259;SDS011;32999;52.412;4.890;2023-05-07T15:42:27;16.85;;;6.80;;
47259;SDS011;32999;52.412;4.890;2023-05-07T15:47:30;8.18;;;3.67;;
47259;SDS011;32999;52.412;4.890;2023-05-07T15:52:33;5.53;;;2.80;;
47259;SDS011;32999;52.412;4.890;2023-05-07T15:57:35;4.90;;;3.05;;
47259;SDS011;32999;52.412;4.890;2023-05-07T16:02:38;7.53;;;4.75;;
47259;SDS011;32999;52.412;4.890;2023-05-07T16:07:40;6.97;;;3.08;;
47259;SDS011;32999;52.412;4.890;2023-05-07T16:12:43;3.90;;;2.60;;
47259;SDS011;32999;52.412;4.890;2023-05-07T16:17:48;4.68;;;3.20;;
47259;SDS011;32999;52.412;4.890;2023-05-07T16:22:51;4.38;;;1.90;;
47259;SDS011;32999;52.412;4.890;2023-05-07T16:27:52;2.65;;;1.77;;
47259;SDS011;32999;52.412;4.890;2023-05-07T16:32:56;2.88;;;2.00;;
47259;SDS011;32999;52.412;4.890;2023-05-07T16:37:57;3.97;;;2.15;;
47259;SDS011;32999;52.412;4.890;2023-05-07T16:42:59;3.50;;;2.63;;
47259;SDS011;32999;52.412;4.890;2023-05-07T16:48:04;3.03;;;2.13;;
47259;SDS011;32999;52.412;4.890;2023-05-07T16:53:07;4.32;;;2.35;;
47259;SDS011;32999;52.412;4.890;2023-05-07T16:58:09;3.35;;;2.22;;
47259;SDS011;32999;52.412;4.890;2023-05-07T17:03:12;6.50;;;3.50;;
47259;SDS011;32999;52.412;4.890;2023-05-07T17:08:14;9.40;;;4.60;;
47259;SDS011;32999;52.412;4.890;2023-05-07T17:13:15;7.15;;;4.18;;
47259;SDS011;32999;52.412;4.890;2023-05-07T17:18:18;5.70;;;4.22;;
47259;SDS011;32999;52.412;4.890;2023-05-07T17:23:19;7.25;;;4.85;;
47259;SDS011;32999;52.412;4.890;2023-05-07T17:28:21;10.10;;;5.72;;
47259;SDS011;32999;52.412;4.890;2023-05-07T17:33:24;10.63;;;5.35;;
47259;SDS011;32999;52.412;4.890;2023-05-07T17:38:26;8.23;;;5.35;;
47259;SDS011;32999;52.412;4.890;2023-05-07T17:43:27;7.78;;;5.07;;
47259;SDS011;32999;52.412;4.890;2023-05-07T17:48:30;7.85;;;5.65;;
47259;SDS011;32999;52.412;4.890;2023-05-07T17:53:32;7.17;;;4.70;;
47259;SDS011;32999;52.412;4.890;2023-05-07T17:58:33;10.35;;;4.70;;
47259;SDS011;32999;52.412;4.890;2023-05-07T18:03:36;7.88;;;4.30;;
47259;SDS011;32999;52.412;4.890;2023-05-07T18:08:38;9.95;;;4.80;;
47259;SDS011;32999;52.412;4.890;2023-05-07T18:13:39;7.88;;;4.82;;
47259;SDS011;32999;52.412;4.890;2023-05-07T18:18:42;6.63;;;4.28;;
47259;SDS011;32999;52.412;4.890;2023-05-07T18:23:45;5.25;;;3.53;;
47259;SDS011;32999;52.412;4.890;2023-05-07T18:28:47;8.35;;;4.97;;
47259;SDS011;32999;52.412;4.890;2023-05-07T18:33:51;9.95;;;4.57;;
47259;SDS011;32999;52.412;4.890;2023-05-07T18:38:54;7.40;;;4.00;;
47259;SDS011;32999;52.412;4.890;2023-05-07T18:43:56;5.80;;;3.83;;
47259;SDS011;32999;52.412;4.890;2023-05-07T18:48:59;8.05;;;4.57;;
47259;SDS011;32999;52.412;4.890;2023-05-07T18:54:01;7.70;;;4.50;;
47259;SDS011;32999;52.412;4.890;2023-05-07T18:59:02;4.72;;;3.55;;
47259;SDS011;32999;52.412;4.890;2023-05-07T19:04:05;6.63;;;4.28;;
47259;SDS011;32999;52.412;4.890;2023-05-07T19:09:07;9.00;;;4.53;;
47259;SDS011;32999;52.412;4.890;2023-05-07T19:14:09;6.72;;;4.57;;
47259;SDS011;32999;52.412;4.890;2023-05-07T19:19:12;7.38;;;5.47;;
47259;SDS011;32999;52.412;4.890;2023-05-07T19:24:14;6.97;;;4.90;;
47259;SDS011;32999;52.412;4.890;2023-05-07T19:29:16;6.30;;;4.47;;
47259;SDS011;32999;52.412;4.890;2023-05-07T19:39:26;9.77;;;5.43;;
47259;SDS011;32999;52.412;4.890;2023-05-07T19:44:27;8.27;;;6.30;;
47259;SDS011;32999;52.412;4.890;2023-05-07T19:49:29;7.03;;;5.03;;
47259;SDS011;32999;52.412;4.890;2023-05-07T19:54:31;6.15;;;4.82;;
47259;SDS011;32999;52.412;4.890;2023-05-07T19:59:33;7.28;;;5.20;;
47259;SDS011;32999;52.412;4.890;2023-05-07T20:04:35;7.55;;;5.97;;
47259;SDS011;32999;52.412;4.890;2023-05-07T20:09:38;7.45;;;5.55;;
47259;SDS011;32999;52.412;4.890;2023-05-07T20:14:40;7.45;;;4.78;;
47259;SDS011;32999;52.412;4.890;2023-05-07T20:19:41;6.13;;;4.35;;
47259;SDS011;32999;52.412;4.890;2023-05-07T20:24:44;7.28;;;4.30;;
47259;SDS011;32999;52.412;4.890;2023-05-07T20:29:46;7.35;;;5.10;;
47259;SDS011;32999;52.412;4.890;2023-05-07T20:34:48;7.25;;;5.70;;
47259;SDS011;32999;52.412;4.890;2023-05-07T20:39:51;7.13;;;5.32;;
47259;SDS011;32999;52.412;4.890;2023-05-07T20:44:52;8.90;;;5.97;;
47259;SDS011;32999;52.412;4.890;2023-05-07T20:49:56;7.57;;;5.78;;
47259;SDS011;32999;52.412;4.890;2023-05-07T20:54:59;11.93;;;8.07;;
47259;SDS011;32999;52.412;4.890;2023-05-07T21:00:01;10.33;;;6.10;;
47259;SDS011;32999;52.412;4.890;2023-05-07T21:05:03;10.80;;;6.00;;
47259;SDS011;32999;52.412;4.890;2023-05-07T21:10:06;9.63;;;6.13;;
47259;SDS011;32999;52.412;4.890;2023-05-07T21:15:09;9.38;;;6.53;;
47259;SDS011;32999;52.412;4.890;2023-05-07T21:20:10;12.43;;;9.82;;
47259;SDS011;32999;52.412;4.890;2023-05-07T21:25:13;15.07;;;9.50;;
47259;SDS011;32999;52.412;4.890;2023-05-07T21:30:15;9.25;;;7.00;;
47259;SDS011;32999;52.412;4.890;2023-05-07T21:35:17;10.52;;;6.43;;
47259;SDS011;32999;52.412;4.890;2023-05-07T21:40:20;8.63;;;6.28;;
47259;SDS011;32999;52.412;4.890;2023-05-07T21:45:22;8.48;;;6.63;;
47259;SDS011;32999;52.412;4.890;2023-05-07T21:50:24;8.48;;;6.75;;
47259;SDS011;32999;52.412;4.890;2023-05-07T21:55:28;9.77;;;7.10;;
47259;SDS011;32999;52.412;4.890;2023-05-07T22:00:30;7.88;;;6.53;;
47259;SDS011;32999;52.412;4.890;2023-05-07T22:05:31;8.35;;;6.72;;
47259;SDS011;32999;52.412;4.890;2023-05-07T22:10:35;11.38;;;7.95;;
47259;SDS011;32999;52.412;4.890;2023-05-07T22:15:36;10.20;;;8.23;;
47259;SDS011;32999;52.412;4.890;2023-05-07T22:20:38;10.15;;;7.97;;
47259;SDS011;32999;52.412;4.890;2023-05-07T22:25:41;11.43;;;7.57;;
47259;SDS011;32999;52.412;4.890;2023-05-07T22:36:03;9.40;;;6.72;;
47259;SDS011;32999;52.412;4.890;2023-05-07T22:41:09;10.30;;;7.30;;
47259;SDS011;32999;52.412;4.890;2023-05-07T22:51:57;8.82;;;6.25;;
47259;SDS011;32999;52.412;4.890;2023-05-07T22:57:17;8.18;;;6.35;;
47259;SDS011;32999;52.412;4.890;2023-05-07T23:13:39;10.85;;;6.68;;
47259;SDS011;32999;52.412;4.890;2023-05-07T23:19:14;9.77;;;7.22;;
47259;SDS011;32999;52.412;4.890;2023-05-07T23:24:22;10.07;;;6.72;;
47259;SDS011;32999;52.412;4.890;2023-05-07T23:29:29;11.85;;;7.93;;
47259;SDS011;32999;52.412;4.890;2023-05-07T23:34:32;10.43;;;7.28;;
